Groveville, New Jersey
Current Conditions -  °F | °C
As of 10:23 AM on Monday 24 Nov 2014 (Local Time) from KWRI Reporting Station
Overcast Overcast  
Wind Chill: 68°   Ceiling: 1900
Heat Index: 68°   Visibility: 10mi
Dew Point: 63°   Wind: 21mph
Humidity: 83%   Direction: 230°SW
Pressure: 29.66"   Gusts: 29mph
Location:  40.1542°N, 74.6404°W
Report Text: KWRI 241523Z AUTO 23018G25KT 10SM BKN019 BKN026 OVC032 20/17 A2966 RMK AO2 CIG 019V026 BKN019 V SCT
Loading
Personal Weather Stations






























Interactive Weather Map New forecast layout! Learn more

10-Day Weather Forecast

Advertisements
Track Severe Weather on mobile